Time;durP1;ratioP1;P1;durP2;ratioP2;P2;SDS_P1;SDS_P2;PMS_P1;PMS_P2;Temp;Humidity;BMP_temperature;BMP_pressure;BME280_temperature;BME280_humidity;BME280_pressure;Samples;Min_cycle;Max_cycle;Signal;HPM_P1;HPM_P2
2021/03/17 00:01:49;;;;;;;6.95;4.40;;;;;;;;;;5113674;28;20252;-69
2021/03/17 00:04:16;;;;;;;6.90;4.80;;;;;;;;;;5115193;28;20235;-69
2021/03/17 00:06:43;;;;;;;9.88;5.25;;;;;;;;;;5117728;28;20747;-69
2021/03/17 00:09:10;;;;;;;10.20;4.82;;;;;;;;;;5117452;28;20246;-69
2021/03/17 00:11:36;;;;;;;11.80;5.22;;;;;;;;;;5117305;28;20193;-70
2021/03/17 00:14:04;;;;;;;16.02;5.63;;;;;;;;;;5117399;28;20662;-70
2021/03/17 00:16:31;;;;;;;6.15;4.75;;;;;;;;;;5117043;28;20750;-69
2021/03/17 00:18:57;;;;;;;6.63;5.20;;;;;;;;;;5117215;28;20240;-69
2021/03/17 00:21:24;;;;;;;7.05;5.25;;;;;;;;;;5117399;28;20308;-69
2021/03/17 00:23:51;;;;;;;7.32;4.85;;;;;;;;;;5117821;28;20298;-69
2021/03/17 00:26:18;;;;;;;8.20;4.93;;;;;;;;;;5117305;28;20288;-68
2021/03/17 00:28:44;;;;;;;6.80;5.18;;;;;;;;;;5117092;28;20235;-68
2021/03/17 00:31:12;;;;;;;7.43;4.82;;;;;;;;;;5117619;28;20294;-68
2021/03/17 00:33:39;;;;;;;10.60;6.07;;;;;;;;;;5117481;28;20247;-69
2021/03/17 00:36:06;;;;;;;10.05;6.05;;;;;;;;;;5116865;28;20284;-68
2021/03/17 00:38:32;;;;;;;6.70;5.63;;;;;;;;;;5116826;28;20284;-68
2021/03/17 00:40:59;;;;;;;7.72;5.53;;;;;;;;;;5117246;28;20303;-68
2021/03/17 00:43:26;;;;;;;12.68;5.78;;;;;;;;;;5117434;28;20718;-69
2021/03/17 00:45:52;;;;;;;15.20;5.93;;;;;;;;;;5116751;28;20445;-69
2021/03/17 00:48:20;;;;;;;13.55;6.72;;;;;;;;;;5117539;28;20229;-68
2021/03/17 00:50:47;;;;;;;11.13;6.85;;;;;;;;;;5116631;28;20284;-69
2021/03/17 00:53:14;;;;;;;14.18;7.50;;;;;;;;;;5116878;28;20277;-69
2021/03/17 00:55:40;;;;;;;10.20;6.30;;;;;;;;;;5116551;28;20287;-69
2021/03/17 00:58:07;;;;;;;13.90;7.55;;;;;;;;;;5116442;28;20280;-69
2021/03/17 01:00:34;;;;;;;12.55;6.75;;;;;;;;;;5116657;28;20305;-68
2021/03/17 01:03:01;;;;;;;8.02;5.60;;;;;;;;;;5116414;28;20611;-68
2021/03/17 01:05:28;;;;;;;10.82;6.20;;;;;;;;;;5116643;28;20197;-68
2021/03/17 01:07:55;;;;;;;12.60;7.22;;;;;;;;;;5116281;28;20231;-69
2021/03/17 01:10:23;;;;;;;14.82;6.60;;;;;;;;;;5116577;28;20288;-69
2021/03/17 01:12:50;;;;;;;9.55;7.13;;;;;;;;;;5116476;28;20193;-69
2021/03/17 01:15:18;;;;;;;7.60;6.32;;;;;;;;;;5116617;28;20287;-70
2021/03/17 01:17:44;;;;;;;9.30;8.05;;;;;;;;;;5116700;28;20208;-69
2021/03/17 01:20:12;;;;;;;14.98;6.13;;;;;;;;;;5116357;28;20305;-69
2021/03/17 01:22:39;;;;;;;8.20;5.95;;;;;;;;;;5116149;28;20828;-68
2021/03/17 01:25:07;;;;;;;8.45;6.13;;;;;;;;;;5115965;28;20199;-68
2021/03/17 01:27:34;;;;;;;8.73;6.35;;;;;;;;;;5115896;28;20203;-69
2021/03/17 01:30:01;;;;;;;9.30;6.22;;;;;;;;;;5115907;28;20680;-69
2021/03/17 01:32:27;;;;;;;8.77;5.95;;;;;;;;;;5115775;28;20284;-69
2021/03/17 01:34:54;;;;;;;9.82;5.50;;;;;;;;;;5116001;28;20284;-69
2021/03/17 01:37:21;;;;;;;11.13;6.45;;;;;;;;;;5116095;28;20238;-68
2021/03/17 01:39:48;;;;;;;10.38;6.70;;;;;;;;;;5117072;28;20311;-68
2021/03/17 01:42:15;;;;;;;10.35;7.45;;;;;;;;;;5116660;28;20222;-70
2021/03/17 01:44:42;;;;;;;12.88;7.90;;;;;;;;;;5115515;28;20198;-69
2021/03/17 01:47:08;;;;;;;12.13;7.63;;;;;;;;;;5115428;28;20204;-69
2021/03/17 01:49:35;;;;;;;11.68;6.30;;;;;;;;;;5115396;28;20200;-70
2021/03/17 01:52:02;;;;;;;8.25;6.05;;;;;;;;;;5115747;28;20193;-71
2021/03/17 01:54:29;;;;;;;10.90;6.40;;;;;;;;;;5115483;28;20201;-70
2021/03/17 01:56:56;;;;;;;6.60;5.70;;;;;;;;;;5115293;28;20194;-69
2021/03/17 01:59:24;;;;;;;7.10;5.50;;;;;;;;;;5115590;28;20196;-69
2021/03/17 02:01:50;;;;;;;7.95;5.15;;;;;;;;;;5115335;28;20213;-70
2021/03/17 02:04:17;;;;;;;5.80;4.75;;;;;;;;;;5115026;28;20193;-70
2021/03/17 02:06:44;;;;;;;4.03;3.03;;;;;;;;;;5115105;28;20612;-69
2021/03/17 02:09:10;;;;;;;3.00;2.70;;;;;;;;;;5115296;28;20199;-69
2021/03/17 02:11:42;;;;;;;3.83;3.08;;;;;;;;;;5115148;28;20207;-69
2021/03/17 02:14:25;;;;;;;4.78;2.80;;;;;;;;;;5115682;28;20184;-70
2021/03/17 02:16:55;;;;;;;2.70;2.33;;;;;;;;;;5115081;28;20233;-70
2021/03/17 02:19:48;;;;;;;3.95;3.65;;;;;;;;;;5115353;28;20280;-70
2021/03/17 02:22:36;;;;;;;5.20;3.30;;;;;;;;;;5115223;28;20209;-70
2021/03/17 02:25:05;;;;;;;4.10;3.67;;;;;;;;;;5114790;28;20276;-69
2021/03/17 02:27:45;;;;;;;3.72;3.42;;;;;;;;;;5114457;28;20188;-70
2021/03/17 02:30:32;;;;;;;3.70;3.38;;;;;;;;;;5115155;28;20709;-70
2021/03/17 02:33:19;;;;;;;7.43;4.10;;;;;;;;;;5108338;28;20245;-70
2021/03/17 02:35:48;;;;;;;12.10;4.55;;;;;;;;;;5115118;28;20619;-70
2021/03/17 02:38:15;;;;;;;5.10;4.03;;;;;;;;;;5114307;28;20654;-70
2021/03/17 02:40:43;;;;;;;4.35;3.95;;;;;;;;;;5114510;28;20212;-70
2021/03/17 02:43:11;;;;;;;7.15;4.30;;;;;;;;;;5114611;28;20193;-70
2021/03/17 02:45:39;;;;;;;5.63;4.30;;;;;;;;;;5114492;28;20201;-71
2021/03/17 02:48:08;;;;;;;5.25;4.35;;;;;;;;;;5114530;28;20192;-71
2021/03/17 02:50:37;;;;;;;5.57;4.97;;;;;;;;;;5114117;28;20266;-70
2021/03/17 02:53:05;;;;;;;5.45;4.82;;;;;;;;;;5114623;28;20193;-70
2021/03/17 02:55:32;;;;;;;8.68;4.60;;;;;;;;;;5114262;28;20210;-69
2021/03/17 02:58:00;;;;;;;6.32;5.03;;;;;;;;;;5114263;28;20244;-69
2021/03/17 03:00:27;;;;;;;7.05;4.40;;;;;;;;;;5114197;28;20221;-70
2021/03/17 03:02:54;;;;;;;9.82;5.60;;;;;;;;;;5114202;28;20196;-70
2021/03/17 03:05:21;;;;;;;7.97;5.97;;;;;;;;;;5114315;28;20200;-71
2021/03/17 03:07:50;;;;;;;8.00;5.57;;;;;;;;;;5114431;28;20199;-70
2021/03/17 03:10:18;;;;;;;7.57;6.03;;;;;;;;;;5113726;28;20197;-70
2021/03/17 03:12:45;;;;;;;10.02;5.68;;;;;;;;;;5114036;28;20197;-70
2021/03/17 03:15:12;;;;;;;8.48;6.57;;;;;;;;;;5114096;28;20684;-70
2021/03/17 03:17:40;;;;;;;8.57;6.32;;;;;;;;;;5114357;28;20230;-70
2021/03/17 03:20:08;;;;;;;9.77;5.65;;;;;;;;;;5113529;28;20194;-70
2021/03/17 03:22:35;;;;;;;11.90;6.72;;;;;;;;;;5113857;28;20249;-70
2021/03/17 03:25:04;;;;;;;7.40;6.18;;;;;;;;;;5113588;28;20189;-70
2021/03/17 03:27:30;;;;;;;8.70;5.85;;;;;;;;;;5114306;28;20211;-70
2021/03/17 03:29:58;;;;;;;7.43;6.25;;;;;;;;;;5113537;28;20670;-70
2021/03/17 03:32:25;;;;;;;11.02;6.60;;;;;;;;;;5114404;28;20193;-69
2021/03/17 03:34:51;;;;;;;9.98;7.05;;;;;;;;;;5114355;28;20546;-70
2021/03/17 03:37:18;;;;;;;12.60;7.35;;;;;;;;;;5113479;28;20203;-70
2021/03/17 03:39:45;;;;;;;7.90;6.45;;;;;;;;;;5113010;28;20197;-69
2021/03/17 03:42:12;;;;;;;11.60;6.65;;;;;;;;;;5113687;28;20220;-70
2021/03/17 03:44:39;;;;;;;7.82;6.10;;;;;;;;;;5113341;28;20681;-69
2021/03/17 03:47:06;;;;;;;9.98;6.45;;;;;;;;;;5114051;28;20226;-69
2021/03/17 03:49:32;;;;;;;6.25;3.40;;;;;;;;;;5113289;28;20238;-69
2021/03/17 03:52:01;;;;;;;6.47;3.42;;;;;;;;;;5113612;28;20203;-69
2021/03/17 03:54:31;;;;;;;3.63;2.63;;;;;;;;;;5113587;28;20197;-70
2021/03/17 03:57:00;;;;;;;3.58;2.83;;;;;;;;;;5113310;28;20185;-69
2021/03/17 03:59:30;;;;;;;3.65;2.58;;;;;;;;;;5114157;28;20199;-69
2021/03/17 04:01:59;;;;;;;12.07;3.08;;;;;;;;;;5113463;28;20216;-68
2021/03/17 04:04:28;;;;;;;4.50;3.60;;;;;;;;;;5114318;28;20192;-68
2021/03/17 04:06:56;;;;;;;6.03;2.20;;;;;;;;;;5113518;28;20199;-70
2021/03/17 04:09:25;;;;;;;4.10;2.30;;;;;;;;;;5113990;28;20197;-69
2021/03/17 04:11:53;;;;;;;4.95;2.38;;;;;;;;;;5113114;28;20288;-69
2021/03/17 04:14:20;;;;;;;4.13;2.42;;;;;;;;;;5113208;28;20653;-69
2021/03/17 04:16:51;;;;;;;4.53;2.13;;;;;;;;;;5112876;28;20229;-69
2021/03/17 04:19:18;;;;;;;5.95;2.40;;;;;;;;;;5113503;28;20614;-69
2021/03/17 04:21:46;;;;;;;4.32;2.40;;;;;;;;;;5113298;28;20217;-70
2021/03/17 04:24:13;;;;;;;7.35;2.20;;;;;;;;;;5113285;28;20754;-69
2021/03/17 04:26:40;;;;;;;4.55;2.35;;;;;;;;;;5113296;28;20249;-69
2021/03/17 04:29:07;;;;;;;5.82;3.28;;;;;;;;;;5113338;28;20271;-70
2021/03/17 04:31:33;;;;;;;4.40;2.15;;;;;;;;;;5113217;28;20197;-69
2021/03/17 04:34:02;;;;;;;4.20;2.10;;;;;;;;;;5113227;28;20193;-70
2021/03/17 04:36:28;;;;;;;1.85;1.70;;;;;;;;;;5113081;28;20197;-70
2021/03/17 04:38:56;;;;;;;4.47;2.40;;;;;;;;;;5113051;28;20646;-69
2021/03/17 04:41:23;;;;;;;8.30;2.75;;;;;;;;;;5113000;28;20212;-69
2021/03/17 04:43:49;;;;;;;2.05;1.92;;;;;;;;;;5112979;28;20203;-70
2021/03/17 04:46:16;;;;;;;4.10;1.90;;;;;;;;;;5112766;28;20196;-69
2021/03/17 04:48:44;;;;;;;3.10;2.17;;;;;;;;;;5113404;28;20203;-69
2021/03/17 04:51:13;;;;;;;2.15;1.95;;;;;;;;;;5115661;28;20229;-69
2021/03/17 04:53:39;;;;;;;3.95;1.95;;;;;;;;;;5116462;28;20192;-70
2021/03/17 04:56:07;;;;;;;3.38;2.00;;;;;;;;;;5116248;28;20193;-69
2021/03/17 04:58:37;;;;;;;4.28;2.10;;;;;;;;;;5116630;28;20537;-69
2021/03/17 05:01:06;;;;;;;7.65;2.30;;;;;;;;;;5116394;28;20219;-69
2021/03/17 05:03:34;;;;;;;4.75;1.98;;;;;;;;;;5116544;28;20296;-69
2021/03/17 05:06:01;;;;;;;3.42;2.00;;;;;;;;;;5116483;28;20246;-69
2021/03/17 05:08:30;;;;;;;3.38;2.22;;;;;;;;;;5116364;28;20288;-69
2021/03/17 05:10:57;;;;;;;6.68;2.35;;;;;;;;;;5116019;28;20200;-69
2021/03/17 05:13:24;;;;;;;3.50;1.88;;;;;;;;;;5116294;28;20193;-69
2021/03/17 05:15:51;;;;;;;3.58;2.08;;;;;;;;;;5116566;28;20316;-69
2021/03/17 05:18:19;;;;;;;3.35;2.00;;;;;;;;;;5116838;28;20199;-69
2021/03/17 05:20:48;;;;;;;6.78;2.47;;;;;;;;;;5116121;28;20738;-69
2021/03/17 05:23:16;;;;;;;4.35;2.05;;;;;;;;;;5116012;28;20197;-69
2021/03/17 05:25:45;;;;;;;7.63;2.00;;;;;;;;;;5116174;28;20196;-69
2021/03/17 05:28:13;;;;;;;4.15;2.20;;;;;;;;;;5115817;28;20193;-69
2021/03/17 05:30:40;;;;;;;5.70;2.58;;;;;;;;;;5116028;28;20196;-69
2021/03/17 05:33:08;;;;;;;4.60;2.65;;;;;;;;;;5116258;28;20193;-68
2021/03/17 05:35:35;;;;;;;11.32;2.80;;;;;;;;;;5115944;28;20192;-68
2021/03/17 05:38:01;;;;;;;7.55;2.13;;;;;;;;;;5115507;28;20654;-68
2021/03/17 05:40:29;;;;;;;5.13;1.92;;;;;;;;;;5115669;28;20194;-68
2021/03/17 05:42:59;;;;;;;8.18;3.08;;;;;;;;;;5115618;28;20193;-68
2021/03/17 05:45:27;;;;;;;8.30;3.33;;;;;;;;;;5115596;28;20639;-68
2021/03/17 05:47:55;;;;;;;8.88;3.40;;;;;;;;;;5126870;27;20193;-68
2021/03/17 05:50:22;;;;;;;6.60;3.00;;;;;;;;;;5136043;27;20283;-69
2021/03/17 05:52:49;;;;;;;4.55;2.10;;;;;;;;;;5135497;27;20194;-68
2021/03/17 05:55:17;;;;;;;6.78;2.88;;;;;;;;;;5135467;27;20196;-69
2021/03/17 05:57:44;;;;;;;6.13;2.38;;;;;;;;;;5135925;27;20203;-68
2021/03/17 06:00:13;;;;;;;6.75;2.85;;;;;;;;;;5135909;27;20196;-68
2021/03/17 06:02:40;;;;;;;3.72;2.30;;;;;;;;;;5134659;27;20269;-68
2021/03/17 06:05:08;;;;;;;8.35;3.80;;;;;;;;;;5134879;27;20196;-69
2021/03/17 06:07:38;;;;;;;7.30;2.53;;;;;;;;;;5135561;27;20202;-68
2021/03/17 06:10:06;;;;;;;8.90;3.42;;;;;;;;;;5134799;27;20185;-68
2021/03/17 06:12:36;;;;;;;8.13;3.17;;;;;;;;;;5134813;27;20200;-67
2021/03/17 06:15:03;;;;;;;6.82;3.08;;;;;;;;;;5134400;27;20192;-68
2021/03/17 06:17:32;;;;;;;5.30;3.08;;;;;;;;;;5134448;27;20273;-68
2021/03/17 06:20:00;;;;;;;7.25;4.05;;;;;;;;;;5133277;27;20653;-69
2021/03/17 06:22:27;;;;;;;4.63;3.85;;;;;;;;;;5135401;27;20218;-69
2021/03/17 06:24:54;;;;;;;10.32;3.83;;;;;;;;;;5135216;27;20285;-68
2021/03/17 06:27:21;;;;;;;5.20;3.95;;;;;;;;;;5135456;27;20192;-68
2021/03/17 06:29:48;;;;;;;8.25;3.25;;;;;;;;;;5135136;27;20198;-68
2021/03/17 06:32:15;;;;;;;7.90;3.92;;;;;;;;;;5134890;27;20200;-68
2021/03/17 06:34:49;;;;;;;11.60;3.60;;;;;;;;;;5134600;27;20192;-67
2021/03/17 06:37:15;;;;;;;8.52;3.97;;;;;;;;;;5134504;27;20237;-68
2021/03/17 06:39:42;;;;;;;7.78;3.75;;;;;;;;;;5135432;27;20252;-68
2021/03/17 06:42:10;;;;;;;12.60;4.43;;;;;;;;;;5134706;27;20216;-68
2021/03/17 06:44:36;;;;;;;8.85;4.88;;;;;;;;;;5134340;27;20279;-68
2021/03/17 06:47:13;;;;;;;6.75;4.18;;;;;;;;;;5134183;27;20196;-68
2021/03/17 06:49:41;;;;;;;6.00;4.43;;;;;;;;;;5132630;27;20241;-68
2021/03/17 06:52:27;;;;;;;11.77;4.60;;;;;;;;;;5134749;27;20329;-68
2021/03/17 06:55:03;;;;;;;10.35;4.20;;;;;;;;;;5134601;27;20238;-67
2021/03/17 06:57:30;;;;;;;8.68;4.43;;;;;;;;;;5134601;27;20367;-68
2021/03/17 07:00:17;;;;;;;17.73;3.97;;;;;;;;;;5133793;27;20192;-68
2021/03/17 07:02:50;;;;;;;6.20;4.30;;;;;;;;;;5134487;27;20304;-67
2021/03/17 07:05:16;;;;;;;12.27;5.10;;;;;;;;;;5133891;27;20184;-67
2021/03/17 07:07:48;;;;;;;8.13;4.70;;;;;;;;;;5134107;27;20207;-68
2021/03/17 07:10:14;;;;;;;9.65;4.60;;;;;;;;;;5133435;27;20616;-67
2021/03/17 07:12:41;;;;;;;4.55;3.88;;;;;;;;;;5134343;27;20196;-68
2021/03/17 07:15:11;;;;;;;5.40;4.50;;;;;;;;;;5134579;27;20283;-68
2021/03/17 07:17:38;;;;;;;7.95;4.50;;;;;;;;;;5134195;27;20632;-68
2021/03/17 07:20:07;;;;;;;5.65;4.32;;;;;;;;;;5132310;27;20194;-69
2021/03/17 07:22:34;;;;;;;6.63;4.45;;;;;;;;;;5133964;27;20248;-68
2021/03/17 07:25:03;;;;;;;8.38;5.13;;;;;;;;;;5134190;27;20195;-67
2021/03/17 07:27:30;;;;;;;9.98;4.05;;;;;;;;;;5134491;27;20212;-68
2021/03/17 07:30:12;;;;;;;10.10;5.45;;;;;;;;;;5133547;27;20196;-67
2021/03/17 07:32:59;;;;;;;8.20;5.40;;;;;;;;;;5130784;27;20214;-67
2021/03/17 07:35:26;;;;;;;7.00;4.88;;;;;;;;;;5134258;27;20275;-68
2021/03/17 07:38:03;;;;;;;10.25;5.40;;;;;;;;;;5134005;28;20279;-69
2021/03/17 07:40:31;;;;;;;8.25;5.07;;;;;;;;;;5133794;28;20195;-69
2021/03/17 07:43:00;;;;;;;10.60;5.50;;;;;;;;;;5133989;28;20287;-69
2021/03/17 07:45:27;;;;;;;8.30;4.32;;;;;;;;;;5134758;28;20204;-69
2021/03/17 07:47:54;;;;;;;6.13;4.50;;;;;;;;;;5133921;28;20197;-68
2021/03/17 07:50:21;;;;;;;11.25;4.90;;;;;;;;;;5132500;28;20196;-69
2021/03/17 07:52:48;;;;;;;8.20;4.28;;;;;;;;;;5134191;28;20196;-69
2021/03/17 07:55:16;;;;;;;6.70;4.15;;;;;;;;;;5133953;28;20191;-68
2021/03/17 07:57:43;;;;;;;7.22;3.60;;;;;;;;;;5133911;28;20206;-69
2021/03/17 08:00:11;;;;;;;8.52;3.63;;;;;;;;;;5133459;28;20244;-70
2021/03/17 08:02:38;;;;;;;5.00;3.38;;;;;;;;;;5134022;28;20312;-68
2021/03/17 08:05:06;;;;;;;8.45;4.10;;;;;;;;;;5134046;28;20216;-69
2021/03/17 08:07:33;;;;;;;6.60;3.47;;;;;;;;;;5133627;28;20193;-68
2021/03/17 08:10:00;;;;;;;6.82;3.08;;;;;;;;;;5134526;28;20192;-68
2021/03/17 08:12:27;;;;;;;8.25;3.55;;;;;;;;;;5133826;28;20276;-68
2021/03/17 08:14:55;;;;;;;6.65;3.30;;;;;;;;;;5133720;28;20196;-70
2021/03/17 08:17:32;;;;;;;7.40;4.30;;;;;;;;;;5133840;28;20312;-69
2021/03/17 08:20:18;;;;;;;5.47;3.40;;;;;;;;;;5131949;28;20235;-68
2021/03/17 08:22:45;;;;;;;7.95;3.90;;;;;;;;;;5133665;28;20257;-68
2021/03/17 08:25:12;;;;;;;8.00;3.92;;;;;;;;;;5135095;27;20275;-68
2021/03/17 08:27:39;;;;;;;9.75;3.95;;;;;;;;;;5137337;27;20283;-68
2021/03/17 08:30:14;;;;;;;20.75;4.80;;;;;;;;;;5137492;27;20230;-68
2021/03/17 08:33:02;;;;;;;10.70;5.15;;;;;;;;;;5137987;27;20276;-68
2021/03/17 08:35:47;;;;;;;7.03;4.10;;;;;;;;;;5130231;27;20195;-69
2021/03/17 08:38:15;;;;;;;5.70;4.30;;;;;;;;;;5137486;27;20552;-69
2021/03/17 08:40:48;;;;;;;8.43;4.63;;;;;;;;;;5137391;27;20551;-69
2021/03/17 08:43:33;;;;;;;6.60;4.57;;;;;;;;;;5137237;27;20196;-68
2021/03/17 08:46:06;;;;;;;12.02;4.00;;;;;;;;;;5136607;27;20203;-68
2021/03/17 08:48:52;;;;;;;8.68;4.13;;;;;;;;;;5137099;27;20238;-69
2021/03/17 08:51:18;;;;;;;5.70;4.10;;;;;;;;;;5136027;27;20206;-68
2021/03/17 08:53:47;;;;;;;4.93;3.83;;;;;;;;;;5137327;27;20625;-70
2021/03/17 08:56:28;;;;;;;17.75;4.93;;;;;;;;;;5136768;27;20201;-69
2021/03/17 08:59:10;;;;;;;5.93;3.78;;;;;;;;;;5136347;27;20281;-70
2021/03/17 09:01:38;;;;;;;4.97;3.60;;;;;;;;;;5136199;27;20220;-71
2021/03/17 09:04:04;;;;;;;3.60;3.30;;;;;;;;;;5137199;27;20279;-68
2021/03/17 09:06:31;;;;;;;7.15;3.85;;;;;;;;;;5137498;27;20554;-69
2021/03/17 09:09:02;;;;;;;5.57;4.43;;;;;;;;;;5136598;27;20534;-69
2021/03/17 09:11:59;;;;;;;7.55;4.30;;;;;;;;;;5134709;27;20283;-67
2021/03/17 09:14:33;;;;;;;8.07;4.00;;;;;;;;;;5135157;27;20593;-70
2021/03/17 09:17:18;;;;;;;11.13;3.40;;;;;;;;;;5135986;27;20255;-67
2021/03/17 09:20:04;;;;;;;8.85;3.40;;;;;;;;;;5135732;27;20279;-67
2021/03/17 09:22:32;;;;;;;5.85;3.17;;;;;;;;;;5136227;27;20602;-69
2021/03/17 09:24:59;;;;;;;8.73;3.88;;;;;;;;;;5136493;27;20193;-68
2021/03/17 09:27:25;;;;;;;7.03;3.97;;;;;;;;;;5136031;27;20309;-69
2021/03/17 09:29:52;;;;;;;8.30;4.05;;;;;;;;;;5136363;27;20338;-68
2021/03/17 09:32:19;;;;;;;7.03;3.88;;;;;;;;;;5136514;27;20200;-69
2021/03/17 09:34:46;;;;;;;6.72;3.72;;;;;;;;;;5135988;27;20713;-69
2021/03/17 09:37:13;;;;;;;5.85;3.30;;;;;;;;;;5135126;27;20603;-69
2021/03/17 09:39:48;;;;;;;4.78;3.13;;;;;;;;;;5135810;27;20689;-70
2021/03/17 09:42:15;;;;;;;5.68;2.97;;;;;;;;;;5137240;27;20208;-70
2021/03/17 09:44:42;;;;;;;3.20;2.70;;;;;;;;;;5134126;27;20587;-69
2021/03/17 09:47:09;;;;;;;9.02;3.05;;;;;;;;;;5135958;27;20279;-68
2021/03/17 09:49:36;;;;;;;7.07;2.92;;;;;;;;;;5136294;27;20188;-68
2021/03/17 09:52:04;;;;;;;5.80;2.92;;;;;;;;;;5136146;27;20201;-68
2021/03/17 09:54:32;;;;;;;7.53;3.20;;;;;;;;;;5136227;27;20495;-69
2021/03/17 09:56:59;;;;;;;6.53;2.30;;;;;;;;;;5136166;27;20651;-68
2021/03/17 09:59:28;;;;;;;5.85;2.40;;;;;;;;;;5135752;27;20192;-70
2021/03/17 10:01:57;;;;;;;3.58;2.25;;;;;;;;;;5136706;27;20631;-68
2021/03/17 10:04:24;;;;;;;7.22;2.78;;;;;;;;;;5135484;27;20195;-68
2021/03/17 10:06:51;;;;;;;5.85;2.50;;;;;;;;;;5135645;27;20206;-69
2021/03/17 10:09:18;;;;;;;4.57;2.35;;;;;;;;;;5136115;27;20193;-68
2021/03/17 10:11:46;;;;;;;5.50;2.42;;;;;;;;;;5136088;27;20192;-69
2021/03/17 10:14:14;;;;;;;4.68;3.17;;;;;;;;;;5133439;27;20200;-68
2021/03/17 10:16:41;;;;;;;10.73;3.45;;;;;;;;;;5134945;27;20307;-69
2021/03/17 10:19:07;;;;;;;7.20;2.80;;;;;;;;;;5136127;27;20283;-68
2021/03/17 10:21:34;;;;;;;8.90;3.00;;;;;;;;;;5135451;27;20229;-67
2021/03/17 10:24:01;;;;;;;6.80;2.55;;;;;;;;;;5135458;27;20555;-66
2021/03/17 10:26:29;;;;;;;6.45;3.08;;;;;;;;;;5135360;27;20189;-67
2021/03/17 10:28:56;;;;;;;5.40;3.10;;;;;;;;;;5134545;27;20225;-66
2021/03/17 10:31:23;;;;;;;9.93;2.92;;;;;;;;;;5135052;27;20204;-66
2021/03/17 10:33:50;;;;;;;4.45;3.40;;;;;;;;;;5135521;27;20291;-66
2021/03/17 10:36:17;;;;;;;4.47;3.42;;;;;;;;;;5134116;27;20278;-67
2021/03/17 10:38:51;;;;;;;6.32;3.30;;;;;;;;;;5134935;27;20228;-66
2021/03/17 10:41:33;;;;;;;6.18;3.30;;;;;;;;;;5133605;27;20666;-65
2021/03/17 10:44:13;;;;;;;6.80;3.20;;;;;;;;;;5131183;27;20311;-66
2021/03/17 10:46:54;;;;;;;8.38;3.78;;;;;;;;;;5134685;27;20176;-67
2021/03/17 10:49:21;;;;;;;9.45;3.00;;;;;;;;;;5135640;27;20564;-67
2021/03/17 10:51:51;;;;;;;12.68;2.85;;;;;;;;;;5134377;27;20283;-68
2021/03/17 10:54:27;;;;;;;4.20;3.45;;;;;;;;;;5134969;27;20323;-68
2021/03/17 10:56:53;;;;;;;4.50;3.30;;;;;;;;;;5135220;27;20648;-67
2021/03/17 10:59:25;;;;;;;10.90;3.30;;;;;;;;;;5134626;27;20265;-67
2021/03/17 11:02:07;;;;;;;5.65;3.60;;;;;;;;;;5134410;27;20303;-66
2021/03/17 11:04:33;;;;;;;5.32;3.15;;;;;;;;;;5133995;27;20272;-65
2021/03/17 11:07:00;;;;;;;4.00;3.42;;;;;;;;;;5134494;27;20314;-66
2021/03/17 11:09:27;;;;;;;6.25;3.35;;;;;;;;;;5135152;27;20241;-65
2021/03/17 11:11:54;;;;;;;7.20;3.85;;;;;;;;;;5134361;27;20715;-65
2021/03/17 11:14:38;;;;;;;4.15;3.47;;;;;;;;;;5132741;27;20325;-66
2021/03/17 11:17:06;;;;;;;5.43;3.47;;;;;;;;;;5134113;27;20307;-65
2021/03/17 11:19:33;;;;;;;5.90;3.05;;;;;;;;;;5134616;27;20288;-66
2021/03/17 11:22:00;;;;;;;8.07;3.95;;;;;;;;;;5135041;27;20212;-65
2021/03/17 11:24:27;;;;;;;6.97;3.70;;;;;;;;;;5134451;27;20196;-65
2021/03/17 11:26:54;;;;;;;5.38;4.55;;;;;;;;;;5133714;27;20282;-65
2021/03/17 11:29:21;;;;;;;6.55;3.40;;;;;;;;;;5133751;27;20224;-65
2021/03/17 11:31:49;;;;;;;8.55;3.65;;;;;;;;;;5134090;27;20238;-65
2021/03/17 11:34:17;;;;;;;7.72;3.17;;;;;;;;;;5134500;27;20299;-65
2021/03/17 11:36:45;;;;;;;7.10;5.47;;;;;;;;;;5134082;27;20192;-66
2021/03/17 11:39:12;;;;;;;4.90;3.33;;;;;;;;;;5134285;27;20722;-65
2021/03/17 11:41:39;;;;;;;4.03;2.97;;;;;;;;;;5134027;28;20251;-65
2021/03/17 11:44:06;;;;;;;5.15;3.05;;;;;;;;;;5133309;28;20196;-65
2021/03/17 11:46:34;;;;;;;6.82;3.20;;;;;;;;;;5092323;28;20248;-65
2021/03/17 11:49:00;;;;;;;6.55;2.72;;;;;;;;;;5093450;28;20212;-65
2021/03/17 11:51:28;;;;;;;5.25;3.03;;;;;;;;;;5093307;28;20202;-65
2021/03/17 11:53:55;;;;;;;5.32;3.03;;;;;;;;;;5092651;28;20284;-65
2021/03/17 11:56:22;;;;;;;2.45;2.25;;;;;;;;;;5093129;28;20221;-68
2021/03/17 11:58:49;;;;;;;3.50;2.10;;;;;;;;;;5092939;28;20193;-64
2021/03/17 12:01:16;;;;;;;2.67;1.92;;;;;;;;;;5096403;28;20207;-64
2021/03/17 12:03:43;;;;;;;4.13;2.90;;;;;;;;;;5096998;28;20202;-64
2021/03/17 12:06:10;;;;;;;5.47;3.22;;;;;;;;;;5096308;28;20282;-64
2021/03/17 12:08:38;;;;;;;4.88;2.65;;;;;;;;;;5097296;28;20194;-64
2021/03/17 12:11:05;;;;;;;3.85;2.30;;;;;;;;;;5097110;28;20692;-64
2021/03/17 12:13:32;;;;;;;5.35;2.22;;;;;;;;;;5096875;28;20198;-64
2021/03/17 12:15:59;;;;;;;6.50;2.30;;;;;;;;;;5126841;27;20320;-64
2021/03/17 12:18:26;;;;;;;4.28;2.35;;;;;;;;;;5137537;27;20229;-63
2021/03/17 12:20:53;;;;;;;5.30;2.50;;;;;;;;;;5138221;27;20241;-64
2021/03/17 12:23:19;;;;;;;2.78;2.08;;;;;;;;;;5137899;27;20300;-64
2021/03/17 12:25:47;;;;;;;8.45;2.72;;;;;;;;;;5137603;27;20299;-64
2021/03/17 12:28:14;;;;;;;7.63;2.50;;;;;;;;;;5137735;27;20275;-64
2021/03/17 12:30:41;;;;;;;3.80;2.78;;;;;;;;;;5137377;27;20220;-64
2021/03/17 12:33:08;;;;;;;7.22;3.28;;;;;;;;;;5137883;27;20208;-64
2021/03/17 12:35:35;;;;;;;6.38;2.80;;;;;;;;;;5137745;27;20188;-64
2021/03/17 12:38:02;;;;;;;4.50;2.28;;;;;;;;;;5137140;27;20192;-65
2021/03/17 12:40:30;;;;;;;7.50;2.50;;;;;;;;;;5137547;27;20210;-63
2021/03/17 12:42:59;;;;;;;3.17;2.45;;;;;;;;;;5137212;27;20216;-64
2021/03/17 12:45:27;;;;;;;4.97;2.45;;;;;;;;;;5136216;27;20192;-64
2021/03/17 12:47:54;;;;;;;6.10;2.10;;;;;;;;;;5136943;27;20252;-64
2021/03/17 12:50:23;;;;;;;3.42;2.33;;;;;;;;;;5137256;27;20348;-65
2021/03/17 12:52:49;;;;;;;8.60;3.28;;;;;;;;;;5137230;27;20248;-64
2021/03/17 12:55:16;;;;;;;4.95;2.92;;;;;;;;;;5136553;27;20667;-63
2021/03/17 12:57:43;;;;;;;4.03;2.70;;;;;;;;;;5136508;27;20189;-64
2021/03/17 13:00:12;;;;;;;5.50;2.85;;;;;;;;;;5136830;27;20199;-64
2021/03/17 13:02:39;;;;;;;3.58;3.00;;;;;;;;;;5136517;27;20221;-63
2021/03/17 13:05:06;;;;;;;4.40;3.42;;;;;;;;;;5136913;27;20189;-64
2021/03/17 13:07:33;;;;;;;5.13;2.30;;;;;;;;;;5136205;27;20240;-64
2021/03/17 13:10:00;;;;;;;6.00;2.40;;;;;;;;;;5136910;27;20369;-64
2021/03/17 13:12:26;;;;;;;3.20;2.65;;;;;;;;;;5136549;27;20196;-64
2021/03/17 13:14:54;;;;;;;3.28;2.15;;;;;;;;;;5136457;27;20710;-64
2021/03/17 13:17:23;;;;;;;3.38;2.05;;;;;;;;;;5134284;27;20575;-64
2021/03/17 13:19:49;;;;;;;12.48;2.80;;;;;;;;;;5136205;27;20233;-64
2021/03/17 13:22:16;;;;;;;5.95;1.95;;;;;;;;;;5137045;27;20223;-64
2021/03/17 13:24:43;;;;;;;7.22;2.22;;;;;;;;;;5136534;27;20214;-65
2021/03/17 13:27:10;;;;;;;2.67;2.17;;;;;;;;;;5136321;27;20196;-64
2021/03/17 13:29:36;;;;;;;3.40;2.35;;;;;;;;;;5136003;27;20200;-64
2021/03/17 13:32:03;;;;;;;2.72;2.10;;;;;;;;;;5135930;27;20218;-65
2021/03/17 13:34:31;;;;;;;4.55;2.22;;;;;;;;;;5136744;27;20288;-65
2021/03/17 13:36:58;;;;;;;3.25;2.13;;;;;;;;;;5136094;27;20284;-63
2021/03/17 13:39:25;;;;;;;8.35;2.90;;;;;;;;;;5136065;27;20594;-65
2021/03/17 13:41:52;;;;;;;8.50;1.90;;;;;;;;;;5136095;27;20247;-64
2021/03/17 13:44:18;;;;;;;8.68;3.40;;;;;;;;;;5135794;27;20189;-64
2021/03/17 13:46:45;;;;;;;5.45;2.17;;;;;;;;;;5133453;27;20472;-63
2021/03/17 13:49:12;;;;;;;18.20;2.75;;;;;;;;;;5136004;27;20201;-64
2021/03/17 13:51:39;;;;;;;3.78;2.25;;;;;;;;;;5135745;27;20231;-64
2021/03/17 13:54:06;;;;;;;3.92;2.63;;;;;;;;;;5135659;27;20203;-65
2021/03/17 13:56:33;;;;;;;6.82;2.03;;;;;;;;;;5134999;27;20193;-63
2021/03/17 13:58:59;;;;;;;9.50;2.60;;;;;;;;;;5134574;27;20722;-65
2021/03/17 14:01:26;;;;;;;3.65;2.00;;;;;;;;;;5135134;27;20235;-64
2021/03/17 14:03:55;;;;;;;4.95;2.47;;;;;;;;;;5135622;27;20729;-64
2021/03/17 14:06:22;;;;;;;3.80;2.00;;;;;;;;;;5135728;27;20595;-64
2021/03/17 14:08:49;;;;;;;4.70;2.42;;;;;;;;;;5135594;27;20197;-65
2021/03/17 14:11:16;;;;;;;11.57;3.08;;;;;;;;;;5135637;27;20224;-64
2021/03/17 14:13:43;;;;;;;6.80;2.10;;;;;;;;;;5135344;27;20200;-64
2021/03/17 14:16:10;;;;;;;8.00;3.05;;;;;;;;;;5133331;27;20745;-64
2021/03/17 14:18:36;;;;;;;7.95;2.10;;;;;;;;;;5135067;27;20193;-64
2021/03/17 14:21:04;;;;;;;3.33;1.67;;;;;;;;;;5135584;27;20295;-64
2021/03/17 14:23:30;;;;;;;4.00;1.95;;;;;;;;;;5133681;27;20225;-63
2021/03/17 14:25:59;;;;;;;3.50;1.85;;;;;;;;;;5135600;27;20233;-64
2021/03/17 14:28:25;;;;;;;2.30;1.70;;;;;;;;;;5135360;27;20189;-64
2021/03/17 14:30:52;;;;;;;5.38;2.03;;;;;;;;;;5134762;27;20287;-65
2021/03/17 14:33:19;;;;;;;4.00;2.20;;;;;;;;;;5135362;27;20215;-64
2021/03/17 14:35:46;;;;;;;4.60;2.20;;;;;;;;;;5134464;27;20225;-64
2021/03/17 14:38:13;;;;;;;6.57;2.50;;;;;;;;;;5134776;27;20258;-64
2021/03/17 14:40:46;;;;;;;6.32;2.63;;;;;;;;;;5134715;27;20284;-64
2021/03/17 14:43:14;;;;;;;9.13;3.13;;;;;;;;;;5134827;27;20282;-63
2021/03/17 14:45:41;;;;;;;15.93;3.17;;;;;;;;;;5134941;27;20202;-64
2021/03/17 14:48:09;;;;;;;8.18;2.40;;;;;;;;;;5132221;27;20277;-64
2021/03/17 14:50:36;;;;;;;5.85;2.45;;;;;;;;;;5134466;27;20221;-65